sensor_id;sensor_type;location;lat;lon;timestamp;P1;durP1;ratioP1;P2;durP2;ratioP2
11970;SDS011;6045;42.682;23.294;2023-10-08T00:01:02;6.57;;;3.57;;
11970;SDS011;6045;42.682;23.294;2023-10-08T00:03:31;6.97;;;3.83;;
11970;SDS011;6045;42.682;23.294;2023-10-08T00:05:58;5.23;;;3.07;;
11970;SDS011;6045;42.682;23.294;2023-10-08T00:08:33;5.70;;;3.70;;
11970;SDS011;6045;42.682;23.294;2023-10-08T00:11:00;5.33;;;3.50;;
11970;SDS011;6045;42.682;23.294;2023-10-08T00:13:31;7.00;;;3.37;;
11970;SDS011;6045;42.682;23.294;2023-10-08T00:16:01;6.30;;;3.20;;
11970;SDS011;6045;42.682;23.294;2023-10-08T00:18:28;6.53;;;3.50;;
11970;SDS011;6045;42.682;23.294;2023-10-08T00:20:55;8.10;;;4.00;;
11970;SDS011;6045;42.682;23.294;2023-10-08T00:23:30;6.30;;;3.23;;
11970;SDS011;6045;42.682;23.294;2023-10-08T00:26:01;5.80;;;3.40;;
11970;SDS011;6045;42.682;23.294;2023-10-08T00:28:31;6.13;;;3.40;;
11970;SDS011;6045;42.682;23.294;2023-10-08T00:30:58;7.97;;;3.63;;
11970;SDS011;6045;42.682;23.294;2023-10-08T00:33:31;5.40;;;3.33;;
11970;SDS011;6045;42.682;23.294;2023-10-08T00:35:58;7.27;;;3.53;;
11970;SDS011;6045;42.682;23.294;2023-10-08T00:38:25;7.60;;;3.77;;
11970;SDS011;6045;42.682;23.294;2023-10-08T00:40:57;5.87;;;3.47;;
11970;SDS011;6045;42.682;23.294;2023-10-08T00:43:33;7.83;;;3.90;;
11970;SDS011;6045;42.682;23.294;2023-10-08T00:46:01;4.73;;;3.23;;
11970;SDS011;6045;42.682;23.294;2023-10-08T00:48:41;7.50;;;3.50;;
11970;SDS011;6045;42.682;23.294;2023-10-08T00:51:10;8.80;;;3.90;;
11970;SDS011;6045;42.682;23.294;2023-10-08T00:53:52;6.63;;;4.13;;
11970;SDS011;6045;42.682;23.294;2023-10-08T00:56:23;7.63;;;4.27;;
11970;SDS011;6045;42.682;23.294;2023-10-08T00:58:52;6.77;;;3.97;;
11970;SDS011;6045;42.682;23.294;2023-10-08T01:01:19;6.53;;;3.20;;
11970;SDS011;6045;42.682;23.294;2023-10-08T01:03:46;3.70;;;2.90;;
11970;SDS011;6045;42.682;23.294;2023-10-08T01:06:15;5.90;;;3.30;;
11970;SDS011;6045;42.682;23.294;2023-10-08T01:08:45;7.70;;;3.93;;
11970;SDS011;6045;42.682;23.294;2023-10-08T01:11:18;6.43;;;3.53;;
11970;SDS011;6045;42.682;23.294;2023-10-08T01:13:47;4.63;;;3.23;;
11970;SDS011;6045;42.682;23.294;2023-10-08T01:16:15;5.97;;;3.77;;
11970;SDS011;6045;42.682;23.294;2023-10-08T01:18:43;6.37;;;3.63;;
11970;SDS011;6045;42.682;23.294;2023-10-08T01:21:15;5.40;;;3.07;;
11970;SDS011;6045;42.682;23.294;2023-10-08T01:23:58;7.27;;;3.60;;
11970;SDS011;6045;42.682;23.294;2023-10-08T01:26:27;5.67;;;4.03;;
11970;SDS011;6045;42.682;23.294;2023-10-08T01:28:56;6.47;;;2.97;;
11970;SDS011;6045;42.682;23.294;2023-10-08T01:31:27;6.20;;;3.47;;
11970;SDS011;6045;42.682;23.294;2023-10-08T01:33:54;5.93;;;3.60;;
11970;SDS011;6045;42.682;23.294;2023-10-08T01:36:22;7.70;;;3.87;;
11970;SDS011;6045;42.682;23.294;2023-10-08T01:38:49;5.73;;;3.60;;
11970;SDS011;6045;42.682;23.294;2023-10-08T01:41:17;4.57;;;3.23;;
11970;SDS011;6045;42.682;23.294;2023-10-08T01:43:44;5.37;;;3.67;;
11970;SDS011;6045;42.682;23.294;2023-10-08T01:46:11;7.30;;;3.93;;
11970;SDS011;6045;42.682;23.294;2023-10-08T01:48:40;7.20;;;3.80;;
11970;SDS011;6045;42.682;23.294;2023-10-08T01:51:10;4.50;;;2.83;;
11970;SDS011;6045;42.682;23.294;2023-10-08T01:53:49;4.90;;;3.27;;
11970;SDS011;6045;42.682;23.294;2023-10-08T01:56:20;5.77;;;3.17;;
11970;SDS011;6045;42.682;23.294;2023-10-08T01:58:47;6.87;;;3.13;;
11970;SDS011;6045;42.682;23.294;2023-10-08T02:01:14;6.27;;;3.10;;
11970;SDS011;6045;42.682;23.294;2023-10-08T02:03:45;6.50;;;3.47;;
11970;SDS011;6045;42.682;23.294;2023-10-08T02:06:13;5.77;;;3.20;;
11970;SDS011;6045;42.682;23.294;2023-10-08T02:08:39;5.40;;;2.90;;
11970;SDS011;6045;42.682;23.294;2023-10-08T02:11:06;9.07;;;3.27;;
11970;SDS011;6045;42.682;23.294;2023-10-08T02:13:35;6.57;;;3.27;;
11970;SDS011;6045;42.682;23.294;2023-10-08T02:16:02;5.27;;;3.30;;
11970;SDS011;6045;42.682;23.294;2023-10-08T02:18:28;6.67;;;3.80;;
11970;SDS011;6045;42.682;23.294;2023-10-08T02:20:56;4.03;;;3.23;;
11970;SDS011;6045;42.682;23.294;2023-10-08T02:23:23;4.67;;;3.23;;
11970;SDS011;6045;42.682;23.294;2023-10-08T02:25:50;6.83;;;3.70;;
11970;SDS011;6045;42.682;23.294;2023-10-08T02:28:17;5.57;;;3.60;;
11970;SDS011;6045;42.682;23.294;2023-10-08T02:30:47;5.60;;;3.50;;
11970;SDS011;6045;42.682;23.294;2023-10-08T02:33:14;4.23;;;3.07;;
11970;SDS011;6045;42.682;23.294;2023-10-08T02:35:41;4.80;;;3.27;;
11970;SDS011;6045;42.682;23.294;2023-10-08T02:38:09;4.53;;;3.27;;
11970;SDS011;6045;42.682;23.294;2023-10-08T02:40:38;4.77;;;3.33;;
11970;SDS011;6045;42.682;23.294;2023-10-08T02:43:10;4.67;;;3.30;;
11970;SDS011;6045;42.682;23.294;2023-10-08T02:45:39;5.73;;;3.47;;
11970;SDS011;6045;42.682;23.294;2023-10-08T02:48:08;6.33;;;3.77;;
11970;SDS011;6045;42.682;23.294;2023-10-08T02:50:37;7.30;;;3.37;;
11970;SDS011;6045;42.682;23.294;2023-10-08T02:53:05;4.53;;;3.13;;
11970;SDS011;6045;42.682;23.294;2023-10-08T02:55:36;5.40;;;3.73;;
11970;SDS011;6045;42.682;23.294;2023-10-08T02:58:07;5.23;;;3.30;;
11970;SDS011;6045;42.682;23.294;2023-10-08T03:00:38;5.83;;;3.47;;
11970;SDS011;6045;42.682;23.294;2023-10-08T03:03:06;6.13;;;3.90;;
11970;SDS011;6045;42.682;23.294;2023-10-08T03:05:41;5.53;;;3.30;;
11970;SDS011;6045;42.682;23.294;2023-10-08T03:08:11;6.40;;;3.33;;
11970;SDS011;6045;42.682;23.294;2023-10-08T03:10:38;6.67;;;3.83;;
11970;SDS011;6045;42.682;23.294;2023-10-08T03:13:06;6.47;;;3.80;;
11970;SDS011;6045;42.682;23.294;2023-10-08T03:15:35;5.73;;;3.60;;
11970;SDS011;6045;42.682;23.294;2023-10-08T03:18:05;7.07;;;3.80;;
11970;SDS011;6045;42.682;23.294;2023-10-08T03:20:39;4.87;;;3.07;;
11970;SDS011;6045;42.682;23.294;2023-10-08T03:23:08;5.50;;;3.20;;
11970;SDS011;6045;42.682;23.294;2023-10-08T03:25:49;6.83;;;2.93;;
11970;SDS011;6045;42.682;23.294;2023-10-08T03:28:22;6.63;;;3.60;;
11970;SDS011;6045;42.682;23.294;2023-10-08T03:30:50;4.90;;;3.23;;
11970;SDS011;6045;42.682;23.294;2023-10-08T03:33:27;6.30;;;3.43;;
11970;SDS011;6045;42.682;23.294;2023-10-08T03:35:58;5.53;;;3.13;;
11970;SDS011;6045;42.682;23.294;2023-10-08T03:38:29;5.93;;;3.17;;
11970;SDS011;6045;42.682;23.294;2023-10-08T03:41:09;5.83;;;3.17;;
11970;SDS011;6045;42.682;23.294;2023-10-08T03:43:41;5.33;;;3.00;;
11970;SDS011;6045;42.682;23.294;2023-10-08T03:46:18;3.83;;;3.03;;
11970;SDS011;6045;42.682;23.294;2023-10-08T03:48:46;4.27;;;3.50;;
11970;SDS011;6045;42.682;23.294;2023-10-08T03:51:17;5.27;;;3.13;;
11970;SDS011;6045;42.682;23.294;2023-10-08T03:53:46;5.37;;;3.67;;
11970;SDS011;6045;42.682;23.294;2023-10-08T03:56:27;5.63;;;3.30;;
11970;SDS011;6045;42.682;23.294;2023-10-08T03:58:56;6.53;;;3.40;;
11970;SDS011;6045;42.682;23.294;2023-10-08T04:01:25;6.67;;;3.40;;
11970;SDS011;6045;42.682;23.294;2023-10-08T04:03:57;4.50;;;3.20;;
11970;SDS011;6045;42.682;23.294;2023-10-08T04:06:28;4.50;;;3.10;;
11970;SDS011;6045;42.682;23.294;2023-10-08T04:08:56;5.30;;;3.20;;
11970;SDS011;6045;42.682;23.294;2023-10-08T04:11:36;4.50;;;3.40;;
11970;SDS011;6045;42.682;23.294;2023-10-08T04:14:17;4.63;;;3.50;;
11970;SDS011;6045;42.682;23.294;2023-10-08T04:16:44;4.47;;;3.43;;
11970;SDS011;6045;42.682;23.294;2023-10-08T04:19:12;10.10;;;4.00;;
11970;SDS011;6045;42.682;23.294;2023-10-08T04:21:44;5.93;;;3.77;;
11970;SDS011;6045;42.682;23.294;2023-10-08T04:24:19;12.13;;;4.40;;
11970;SDS011;6045;42.682;23.294;2023-10-08T04:26:53;6.87;;;3.43;;
11970;SDS011;6045;42.682;23.294;2023-10-08T04:29:23;5.77;;;3.60;;
11970;SDS011;6045;42.682;23.294;2023-10-08T04:31:51;5.60;;;3.37;;
11970;SDS011;6045;42.682;23.294;2023-10-08T04:34:27;5.77;;;3.63;;
11970;SDS011;6045;42.682;23.294;2023-10-08T04:36:56;11.07;;;4.20;;
11970;SDS011;6045;42.682;23.294;2023-10-08T04:39:26;6.47;;;3.67;;
11970;SDS011;6045;42.682;23.294;2023-10-08T04:41:58;5.07;;;3.17;;
11970;SDS011;6045;42.682;23.294;2023-10-08T04:44:31;6.53;;;3.03;;
11970;SDS011;6045;42.682;23.294;2023-10-08T04:46:58;5.90;;;3.43;;
11970;SDS011;6045;42.682;23.294;2023-10-08T04:49:30;6.43;;;3.70;;
11970;SDS011;6045;42.682;23.294;2023-10-08T04:52:00;5.77;;;3.37;;
11970;SDS011;6045;42.682;23.294;2023-10-08T04:54:33;5.83;;;3.20;;
11970;SDS011;6045;42.682;23.294;2023-10-08T04:57:05;8.17;;;3.43;;
11970;SDS011;6045;42.682;23.294;2023-10-08T04:59:40;5.77;;;4.23;;
11970;SDS011;6045;42.682;23.294;2023-10-08T05:02:08;7.77;;;3.53;;
11970;SDS011;6045;42.682;23.294;2023-10-08T05:04:59;6.03;;;4.00;;
11970;SDS011;6045;42.682;23.294;2023-10-08T05:07:50;10.77;;;3.83;;
11970;SDS011;6045;42.682;23.294;2023-10-08T05:10:45;7.07;;;3.53;;
11970;SDS011;6045;42.682;23.294;2023-10-08T05:13:39;6.93;;;3.53;;
11970;SDS011;6045;42.682;23.294;2023-10-08T05:16:20;9.03;;;3.50;;
11970;SDS011;6045;42.682;23.294;2023-10-08T05:19:01;7.03;;;3.87;;
11970;SDS011;6045;42.682;23.294;2023-10-08T05:21:50;3.97;;;3.50;;
11970;SDS011;6045;42.682;23.294;2023-10-08T05:24:28;5.30;;;3.77;;
11970;SDS011;6045;42.682;23.294;2023-10-08T05:27:03;7.17;;;4.03;;
11970;SDS011;6045;42.682;23.294;2023-10-08T05:30:02;8.87;;;4.20;;
11970;SDS011;6045;42.682;23.294;2023-10-08T05:32:40;6.15;;;3.88;;
11970;SDS011;6045;42.682;23.294;2023-10-08T05:35:31;5.97;;;3.27;;
11970;SDS011;6045;42.682;23.294;2023-10-08T05:38:15;6.53;;;4.15;;
11970;SDS011;6045;42.682;23.294;2023-10-08T05:40:50;6.30;;;4.05;;
11970;SDS011;6045;42.682;23.294;2023-10-08T05:43:30;7.45;;;3.95;;
11970;SDS011;6045;42.682;23.294;2023-10-08T05:46:16;7.55;;;3.80;;
11970;SDS011;6045;42.682;23.294;2023-10-08T05:48:59;5.13;;;3.45;;
11970;SDS011;6045;42.682;23.294;2023-10-08T05:51:28;7.68;;;3.70;;
11970;SDS011;6045;42.682;23.294;2023-10-08T05:54:10;4.80;;;3.47;;
11970;SDS011;6045;42.682;23.294;2023-10-08T05:56:52;6.38;;;3.58;;
11970;SDS011;6045;42.682;23.294;2023-10-08T05:59:32;7.47;;;4.05;;
11970;SDS011;6045;42.682;23.294;2023-10-08T06:02:04;7.68;;;3.85;;
11970;SDS011;6045;42.682;23.294;2023-10-08T06:04:51;4.43;;;3.38;;
11970;SDS011;6045;42.682;23.294;2023-10-08T06:07:35;5.50;;;3.92;;
11970;SDS011;6045;42.682;23.294;2023-10-08T06:10:13;6.47;;;3.20;;
11970;SDS011;6045;42.682;23.294;2023-10-08T06:13:03;4.60;;;4.00;;
11970;SDS011;6045;42.682;23.294;2023-10-08T06:15:35;5.75;;;3.47;;
11970;SDS011;6045;42.682;23.294;2023-10-08T06:18:09;5.80;;;3.83;;
11970;SDS011;6045;42.682;23.294;2023-10-08T06:20:36;9.43;;;4.38;;
11970;SDS011;6045;42.682;23.294;2023-10-08T06:23:05;6.10;;;3.95;;
11970;SDS011;6045;42.682;23.294;2023-10-08T06:25:33;6.40;;;4.40;;
11970;SDS011;6045;42.682;23.294;2023-10-08T06:28:11;11.50;;;4.32;;
11970;SDS011;6045;42.682;23.294;2023-10-08T06:30:44;10.65;;;5.35;;
11970;SDS011;6045;42.682;23.294;2023-10-08T06:33:11;14.02;;;6.80;;
11970;SDS011;6045;42.682;23.294;2023-10-08T06:35:38;8.65;;;4.78;;
11970;SDS011;6045;42.682;23.294;2023-10-08T06:38:09;6.80;;;4.72;;
11970;SDS011;6045;42.682;23.294;2023-10-08T06:40:40;10.65;;;5.18;;
11970;SDS011;6045;42.682;23.294;2023-10-08T06:43:08;9.30;;;4.10;;
11970;SDS011;6045;42.682;23.294;2023-10-08T06:45:43;8.85;;;4.18;;
11970;SDS011;6045;42.682;23.294;2023-10-08T06:48:11;6.38;;;4.28;;
11970;SDS011;6045;42.682;23.294;2023-10-08T06:50:45;5.00;;;3.90;;
11970;SDS011;6045;42.682;23.294;2023-10-08T06:53:13;6.32;;;3.85;;
11970;SDS011;6045;42.682;23.294;2023-10-08T06:55:40;7.03;;;4.13;;
11970;SDS011;6045;42.682;23.294;2023-10-08T06:58:08;8.35;;;3.85;;
11970;SDS011;6045;42.682;23.294;2023-10-08T07:00:36;13.25;;;4.68;;
11970;SDS011;6045;42.682;23.294;2023-10-08T07:03:06;8.48;;;4.43;;
11970;SDS011;6045;42.682;23.294;2023-10-08T07:05:35;9.75;;;4.50;;
11970;SDS011;6045;42.682;23.294;2023-10-08T07:08:08;13.55;;;4.70;;
11970;SDS011;6045;42.682;23.294;2023-10-08T07:10:38;7.00;;;4.43;;
11970;SDS011;6045;42.682;23.294;2023-10-08T07:13:06;25.48;;;5.88;;
11970;SDS011;6045;42.682;23.294;2023-10-08T07:15:33;11.15;;;4.22;;
11970;SDS011;6045;42.682;23.294;2023-10-08T07:18:04;9.43;;;4.68;;
11970;SDS011;6045;42.682;23.294;2023-10-08T07:20:39;6.75;;;3.97;;
11970;SDS011;6045;42.682;23.294;2023-10-08T07:23:07;10.10;;;4.95;;
11970;SDS011;6045;42.682;23.294;2023-10-08T07:25:51;7.78;;;3.95;;
11970;SDS011;6045;42.682;23.294;2023-10-08T07:28:22;6.35;;;4.22;;
11970;SDS011;6045;42.682;23.294;2023-10-08T07:30:50;8.93;;;4.55;;
11970;SDS011;6045;42.682;23.294;2023-10-08T07:33:17;8.43;;;4.22;;
11970;SDS011;6045;42.682;23.294;2023-10-08T07:35:46;6.60;;;4.55;;
11970;SDS011;6045;42.682;23.294;2023-10-08T07:38:22;10.55;;;4.75;;
11970;SDS011;6045;42.682;23.294;2023-10-08T07:40:52;7.57;;;4.20;;
11970;SDS011;6045;42.682;23.294;2023-10-08T07:43:20;17.38;;;4.80;;
11970;SDS011;6045;42.682;23.294;2023-10-08T07:45:47;7.97;;;4.07;;
11970;SDS011;6045;42.682;23.294;2023-10-08T07:48:14;9.02;;;4.25;;
11970;SDS011;6045;42.682;23.294;2023-10-08T07:50:42;10.68;;;3.47;;
11970;SDS011;6045;42.682;23.294;2023-10-08T07:53:13;5.10;;;2.92;;
11970;SDS011;6045;42.682;23.294;2023-10-08T07:55:44;4.57;;;2.53;;
11970;SDS011;6045;42.682;23.294;2023-10-08T07:58:13;3.92;;;2.42;;
11970;SDS011;6045;42.682;23.294;2023-10-08T08:00:41;4.38;;;2.42;;
11970;SDS011;6045;42.682;23.294;2023-10-08T08:03:17;4.00;;;2.45;;
11970;SDS011;6045;42.682;23.294;2023-10-08T08:05:45;4.32;;;2.42;;
11970;SDS011;6045;42.682;23.294;2023-10-08T08:08:14;2.97;;;2.28;;
11970;SDS011;6045;42.682;23.294;2023-10-08T08:10:43;5.20;;;2.47;;
11970;SDS011;6045;42.682;23.294;2023-10-08T08:13:11;12.30;;;2.65;;
11970;SDS011;6045;42.682;23.294;2023-10-08T08:15:45;3.85;;;2.60;;
11970;SDS011;6045;42.682;23.294;2023-10-08T08:18:16;2.85;;;2.17;;
11970;SDS011;6045;42.682;23.294;2023-10-08T08:20:47;5.45;;;2.35;;
11970;SDS011;6045;42.682;23.294;2023-10-08T08:23:16;3.38;;;2.20;;
11970;SDS011;6045;42.682;23.294;2023-10-08T08:25:43;4.15;;;2.33;;
11970;SDS011;6045;42.682;23.294;2023-10-08T08:28:31;7.72;;;3.33;;
11970;SDS011;6045;42.682;23.294;2023-10-08T08:31:01;7.20;;;3.22;;
11970;SDS011;6045;42.682;23.294;2023-10-08T08:33:29;3.92;;;2.47;;
11970;SDS011;6045;42.682;23.294;2023-10-08T08:36:17;4.03;;;2.30;;
11970;SDS011;6045;42.682;23.294;2023-10-08T08:38:45;5.05;;;2.60;;
11970;SDS011;6045;42.682;23.294;2023-10-08T08:41:12;5.75;;;2.50;;
11970;SDS011;6045;42.682;23.294;2023-10-08T08:43:43;5.07;;;2.50;;
11970;SDS011;6045;42.682;23.294;2023-10-08T08:46:11;6.32;;;2.63;;
11970;SDS011;6045;42.682;23.294;2023-10-08T08:48:39;4.45;;;2.78;;
11970;SDS011;6045;42.682;23.294;2023-10-08T08:51:07;3.65;;;2.55;;
11970;SDS011;6045;42.682;23.294;2023-10-08T08:53:34;3.80;;;2.35;;
11970;SDS011;6045;42.682;23.294;2023-10-08T08:56:03;4.85;;;2.63;;
11970;SDS011;6045;42.682;23.294;2023-10-08T08:58:51;4.72;;;2.33;;
11970;SDS011;6045;42.682;23.294;2023-10-08T09:01:18;5.07;;;2.30;;
11970;SDS011;6045;42.682;23.294;2023-10-08T09:03:46;5.53;;;2.45;;
11970;SDS011;6045;42.682;23.294;2023-10-08T09:06:13;5.55;;;2.55;;
11970;SDS011;6045;42.682;23.294;2023-10-08T09:08:40;4.55;;;2.67;;
11970;SDS011;6045;42.682;23.294;2023-10-08T09:11:14;5.78;;;2.78;;
11970;SDS011;6045;42.682;23.294;2023-10-08T09:13:42;5.25;;;2.70;;
11970;SDS011;6045;42.682;23.294;2023-10-08T09:16:11;9.13;;;3.45;;
11970;SDS011;6045;42.682;23.294;2023-10-08T09:18:41;5.78;;;2.72;;
11970;SDS011;6045;42.682;23.294;2023-10-08T09:21:13;3.35;;;2.45;;
11970;SDS011;6045;42.682;23.294;2023-10-08T09:23:44;5.43;;;2.55;;
11970;SDS011;6045;42.682;23.294;2023-10-08T09:26:17;8.68;;;2.80;;
11970;SDS011;6045;42.682;23.294;2023-10-08T09:28:45;4.65;;;2.33;;
11970;SDS011;6045;42.682;23.294;2023-10-08T09:31:13;4.10;;;2.25;;
11970;SDS011;6045;42.682;23.294;2023-10-08T09:33:42;3.92;;;2.15;;
11970;SDS011;6045;42.682;23.294;2023-10-08T09:36:10;4.90;;;3.05;;
11970;SDS011;6045;42.682;23.294;2023-10-08T09:38:44;4.40;;;2.70;;
11970;SDS011;6045;42.682;23.294;2023-10-08T09:41:14;5.05;;;2.38;;
11970;SDS011;6045;42.682;23.294;2023-10-08T09:43:42;4.70;;;2.55;;
11970;SDS011;6045;42.682;23.294;2023-10-08T09:46:13;6.13;;;2.75;;
11970;SDS011;6045;42.682;23.294;2023-10-08T09:48:44;5.25;;;2.72;;
11970;SDS011;6045;42.682;23.294;2023-10-08T09:51:16;3.55;;;2.13;;
11970;SDS011;6045;42.682;23.294;2023-10-08T09:53:47;3.80;;;2.13;;
11970;SDS011;6045;42.682;23.294;2023-10-08T09:56:19;4.75;;;2.35;;
11970;SDS011;6045;42.682;23.294;2023-10-08T09:58:48;3.97;;;2.58;;
11970;SDS011;6045;42.682;23.294;2023-10-08T10:01:16;6.03;;;2.50;;
11970;SDS011;6045;42.682;23.294;2023-10-08T10:03:45;6.13;;;2.70;;
11970;SDS011;6045;42.682;23.294;2023-10-08T10:06:12;4.75;;;2.15;;
11970;SDS011;6045;42.682;23.294;2023-10-08T10:08:41;4.50;;;2.75;;
11970;SDS011;6045;42.682;23.294;2023-10-08T10:11:08;4.10;;;2.55;;
11970;SDS011;6045;42.682;23.294;2023-10-08T10:13:38;5.10;;;2.50;;
11970;SDS011;6045;42.682;23.294;2023-10-08T10:16:06;4.88;;;2.35;;
11970;SDS011;6045;42.682;23.294;2023-10-08T10:18:33;6.78;;;2.70;;
11970;SDS011;6045;42.682;23.294;2023-10-08T10:21:13;3.58;;;2.05;;
11970;SDS011;6045;42.682;23.294;2023-10-08T10:23:58;7.25;;;2.38;;
11970;SDS011;6045;42.682;23.294;2023-10-08T10:26:25;3.65;;;2.08;;
11970;SDS011;6045;42.682;23.294;2023-10-08T10:31:49;2.83;;;1.90;;
11970;SDS011;6045;42.682;23.294;2023-10-08T10:34:18;2.95;;;1.83;;
11970;SDS011;6045;42.682;23.294;2023-10-08T10:36:47;4.32;;;2.45;;
11970;SDS011;6045;42.682;23.294;2023-10-08T10:39:15;3.03;;;2.05;;
11970;SDS011;6045;42.682;23.294;2023-10-08T10:41:51;4.32;;;2.25;;
11970;SDS011;6045;42.682;23.294;2023-10-08T10:44:22;3.22;;;1.80;;
11970;SDS011;6045;42.682;23.294;2023-10-08T10:46:51;2.70;;;2.15;;
11970;SDS011;6045;42.682;23.294;2023-10-08T10:49:38;3.40;;;1.70;;
11970;SDS011;6045;42.682;23.294;2023-10-08T10:52:13;4.13;;;2.53;;
11970;SDS011;6045;42.682;23.294;2023-10-08T10:54:43;3.63;;;2.05;;
11970;SDS011;6045;42.682;23.294;2023-10-08T10:57:23;5.15;;;2.03;;
11970;SDS011;6045;42.682;23.294;2023-10-08T11:00:00;4.55;;;2.47;;
11970;SDS011;6045;42.682;23.294;2023-10-08T11:02:45;3.60;;;2.50;;
11970;SDS011;6045;42.682;23.294;2023-10-08T11:05:18;3.80;;;2.05;;
11970;SDS011;6045;42.682;23.294;2023-10-08T11:07:50;4.22;;;2.28;;
11970;SDS011;6045;42.682;23.294;2023-10-08T11:18:45;5.22;;;2.70;;
11970;SDS011;6045;42.682;23.294;2023-10-08T11:21:15;5.95;;;2.97;;
11970;SDS011;6045;42.682;23.294;2023-10-08T11:23:48;5.07;;;3.10;;
11970;SDS011;6045;42.682;23.294;2023-10-08T11:26:20;3.00;;;2.28;;
11970;SDS011;6045;42.682;23.294;2023-10-08T11:28:57;6.50;;;2.85;;
11970;SDS011;6045;42.682;23.294;2023-10-08T11:31:26;7.20;;;2.35;;
11970;SDS011;6045;42.682;23.294;2023-10-08T11:33:59;3.75;;;2.13;;
11970;SDS011;6045;42.682;23.294;2023-10-08T11:36:33;6.80;;;2.53;;
11970;SDS011;6045;42.682;23.294;2023-10-08T11:39:14;4.15;;;2.50;;
11970;SDS011;6045;42.682;23.294;2023-10-08T11:41:54;4.75;;;2.47;;
11970;SDS011;6045;42.682;23.294;2023-10-08T11:44:22;6.28;;;2.33;;
11970;SDS011;6045;42.682;23.294;2023-10-08T11:46:49;3.50;;;2.35;;
11970;SDS011;6045;42.682;23.294;2023-10-08T11:49:18;4.43;;;2.50;;
11970;SDS011;6045;42.682;23.294;2023-10-08T11:51:50;6.25;;;2.70;;
11970;SDS011;6045;42.682;23.294;2023-10-08T11:54:20;7.10;;;2.88;;
11970;SDS011;6045;42.682;23.294;2023-10-08T11:56:48;5.80;;;2.65;;
11970;SDS011;6045;42.682;23.294;2023-10-08T11:59:15;5.60;;;2.20;;
11970;SDS011;6045;42.682;23.294;2023-10-08T12:01:43;6.90;;;2.33;;
11970;SDS011;6045;42.682;23.294;2023-10-08T12:04:11;5.13;;;2.80;;
11970;SDS011;6045;42.682;23.294;2023-10-08T12:06:42;4.22;;;2.10;;
11970;SDS011;6045;42.682;23.294;2023-10-08T12:09:12;5.90;;;2.63;;
11970;SDS011;6045;42.682;23.294;2023-10-08T12:11:39;6.95;;;2.10;;
11970;SDS011;6045;42.682;23.294;2023-10-08T12:14:06;4.20;;;2.22;;
11970;SDS011;6045;42.682;23.294;2023-10-08T12:16:34;4.22;;;2.13;;
11970;SDS011;6045;42.682;23.294;2023-10-08T12:19:01;4.63;;;2.45;;
11970;SDS011;6045;42.682;23.294;2023-10-08T12:21:42;4.68;;;2.28;;
11970;SDS011;6045;42.682;23.294;2023-10-08T12:24:11;7.65;;;2.65;;
11970;SDS011;6045;42.682;23.294;2023-10-08T12:26:38;7.20;;;2.38;;
11970;SDS011;6045;42.682;23.294;2023-10-08T12:29:10;9.02;;;2.25;;
11970;SDS011;6045;42.682;23.294;2023-10-08T12:31:39;4.30;;;2.97;;
11970;SDS011;6045;42.682;23.294;2023-10-08T12:34:06;5.97;;;2.28;;
11970;SDS011;6045;42.682;23.294;2023-10-08T12:36:36;3.00;;;1.98;;
11970;SDS011;6045;42.682;23.294;2023-10-08T12:39:05;2.65;;;2.00;;
11970;SDS011;6045;42.682;23.294;2023-10-08T12:41:39;4.72;;;2.38;;
11970;SDS011;6045;42.682;23.294;2023-10-08T12:44:09;5.50;;;2.45;;
11970;SDS011;6045;42.682;23.294;2023-10-08T12:46:36;6.43;;;2.80;;
11970;SDS011;6045;42.682;23.294;2023-10-08T12:49:03;5.32;;;2.45;;
11970;SDS011;6045;42.682;23.294;2023-10-08T12:51:30;4.68;;;2.65;;
11970;SDS011;6045;42.682;23.294;2023-10-08T12:53:58;5.05;;;2.63;;
11970;SDS011;6045;42.682;23.294;2023-10-08T12:56:30;7.25;;;2.63;;
11970;SDS011;6045;42.682;23.294;2023-10-08T12:59:04;5.03;;;2.50;;
11970;SDS011;6045;42.682;23.294;2023-10-08T13:01:32;11.50;;;3.00;;
11970;SDS011;6045;42.682;23.294;2023-10-08T13:04:01;5.68;;;2.00;;
11970;SDS011;6045;42.682;23.294;2023-10-08T13:06:32;4.25;;;2.47;;
11970;SDS011;6045;42.682;23.294;2023-10-08T13:09:02;6.22;;;2.15;;
11970;SDS011;6045;42.682;23.294;2023-10-08T13:11:36;5.45;;;1.92;;
11970;SDS011;6045;42.682;23.294;2023-10-08T13:14:04;3.92;;;2.25;;
11970;SDS011;6045;42.682;23.294;2023-10-08T13:16:31;4.32;;;2.10;;
11970;SDS011;6045;42.682;23.294;2023-10-08T13:19:02;6.55;;;2.53;;
11970;SDS011;6045;42.682;23.294;2023-10-08T13:21:30;8.15;;;2.83;;
11970;SDS011;6045;42.682;23.294;2023-10-08T13:23:58;4.63;;;2.13;;
11970;SDS011;6045;42.682;23.294;2023-10-08T13:26:27;6.05;;;2.28;;
11970;SDS011;6045;42.682;23.294;2023-10-08T13:28:57;5.03;;;1.85;;
11970;SDS011;6045;42.682;23.294;2023-10-08T13:31:27;4.43;;;1.85;;
11970;SDS011;6045;42.682;23.294;2023-10-08T13:34:01;6.05;;;2.30;;
11970;SDS011;6045;42.682;23.294;2023-10-08T13:36:29;6.45;;;2.63;;
11970;SDS011;6045;42.682;23.294;2023-10-08T13:38:56;5.22;;;2.30;;
11970;SDS011;6045;42.682;23.294;2023-10-08T13:41:23;3.63;;;1.90;;
11970;SDS011;6045;42.682;23.294;2023-10-08T13:43:54;3.22;;;1.67;;
11970;SDS011;6045;42.682;23.294;2023-10-08T13:46:31;4.95;;;2.15;;
11970;SDS011;6045;42.682;23.294;2023-10-08T13:49:01;4.70;;;1.80;;
11970;SDS011;6045;42.682;23.294;2023-10-08T13:51:31;4.07;;;1.88;;
11970;SDS011;6045;42.682;23.294;2023-10-08T13:54:00;7.70;;;2.58;;
11970;SDS011;6045;42.682;23.294;2023-10-08T13:56:31;5.00;;;2.45;;
11970;SDS011;6045;42.682;23.294;2023-10-08T13:58:58;5.00;;;2.55;;
11970;SDS011;6045;42.682;23.294;2023-10-08T14:01:38;5.50;;;2.05;;
11970;SDS011;6045;42.682;23.294;2023-10-08T14:04:08;6.88;;;2.13;;
11970;SDS011;6045;42.682;23.294;2023-10-08T14:06:36;2.65;;;1.92;;
11970;SDS011;6045;42.682;23.294;2023-10-08T14:09:06;3.63;;;1.95;;
11970;SDS011;6045;42.682;23.294;2023-10-08T14:11:34;6.32;;;2.38;;
11970;SDS011;6045;42.682;23.294;2023-10-08T14:14:01;6.47;;;2.30;;
11970;SDS011;6045;42.682;23.294;2023-10-08T14:16:33;4.97;;;2.42;;
11970;SDS011;6045;42.682;23.294;2023-10-08T14:19:01;4.38;;;1.98;;
11970;SDS011;6045;42.682;23.294;2023-10-08T14:21:30;2.85;;;1.83;;
11970;SDS011;6045;42.682;23.294;2023-10-08T14:24:02;6.13;;;2.25;;
11970;SDS011;6045;42.682;23.294;2023-10-08T14:26:30;4.32;;;2.20;;
11970;SDS011;6045;42.682;23.294;2023-10-08T14:29:01;8.02;;;2.55;;
11970;SDS011;6045;42.682;23.294;2023-10-08T14:31:33;4.70;;;2.50;;
11970;SDS011;6045;42.682;23.294;2023-10-08T14:34:05;7.68;;;2.05;;
11970;SDS011;6045;42.682;23.294;2023-10-08T14:36:44;5.40;;;2.58;;
11970;SDS011;6045;42.682;23.294;2023-10-08T14:39:28;5.68;;;1.98;;
11970;SDS011;6045;42.682;23.294;2023-10-08T14:42:09;7.80;;;2.00;;
11970;SDS011;6045;42.682;23.294;2023-10-08T14:44:53;5.60;;;2.17;;
11970;SDS011;6045;42.682;23.294;2023-10-08T14:47:20;6.95;;;2.28;;
11970;SDS011;6045;42.682;23.294;2023-10-08T14:49:48;4.90;;;2.20;;
11970;SDS011;6045;42.682;23.294;2023-10-08T14:52:15;7.15;;;2.38;;
11970;SDS011;6045;42.682;23.294;2023-10-08T14:54:42;5.50;;;2.00;;
11970;SDS011;6045;42.682;23.294;2023-10-08T14:57:09;7.05;;;2.25;;
11970;SDS011;6045;42.682;23.294;2023-10-08T14:59:37;7.20;;;2.50;;
11970;SDS011;6045;42.682;23.294;2023-10-08T15:02:04;7.30;;;2.55;;
11970;SDS011;6045;42.682;23.294;2023-10-08T15:04:32;6.72;;;2.22;;
11970;SDS011;6045;42.682;23.294;2023-10-08T15:07:05;11.60;;;3.28;;
11970;SDS011;6045;42.682;23.294;2023-10-08T15:09:34;15.77;;;7.95;;
11970;SDS011;6045;42.682;23.294;2023-10-08T15:12:01;8.32;;;2.75;;
11970;SDS011;6045;42.682;23.294;2023-10-08T15:14:27;6.40;;;1.90;;
11970;SDS011;6045;42.682;23.294;2023-10-08T15:16:54;7.28;;;2.38;;
11970;SDS011;6045;42.682;23.294;2023-10-08T15:19:22;8.85;;;2.60;;
11970;SDS011;6045;42.682;23.294;2023-10-08T15:21:49;7.60;;;2.15;;
11970;SDS011;6045;42.682;23.294;2023-10-08T15:24:18;7.85;;;2.30;;